Regionale Übersicht

METAR und TAF

Montag, 24. Februar 2020 - 02:35 Uhr

Beobachtete horizontale meteorologische Sicht an ausgewählten Flughäfen. Die vollständigen METARs und Flugwettervorhersagen (TAFs) sind verfügbar, wenn Sie auf das entsprechende Symbol mit der ICAO-Flughafenkennung klicken.

  • Luxemburg (ELLX)

    Taf: TAF ELLX 232300Z 2400/2506 27004KT 9999 BKN030 BECMG 2405/2408 18007KT 3500 -RADZ BR BKN007 TEMPO 2408/2412 2000 -DZ BR BKN004 BECMG 2412/2415 23015G30KT 6000 BKN012 PROB40 TEMPO 2415/2424 BKN016 PROB30 TEMPO 2421/2506 4000 RA BKN008=

    Metar: METAR ELLX 240120Z AUTO 27005KT 9999 -RA BKN030/// OVC034/// 06/02 Q1024 NOSIG=

  • Metz/Nancy (LFJL)

    Taf: TAF LFJL 232300Z 2400/2424 23013KT 9999 SCT008 OVC015 TEMPO 2400/2403 36010KT 4000 RA BKN006 TEMPO 2403/2409 15007KT 4500 -DZRA OVC005 TEMPO 2409/2412 BKN008 BECMG 2415/2418 23020G30KT=

    Metar: nil

  • Saarbrücken/Intl (EDDR)

    Taf: TAF EDDR 232300Z 2400/2424 27010KT 9999 BKN010 BECMG 2402/2405 23005KT BKN008 TEMPO 2404/2411 2500 RA BR BKN004 TEMPO 2411/2413 BKN004 BECMG 2411/2415 23015G25KT TEMPO 2422/2424 24020G30KT RA=

    Metar: nil

  • Hahn (EDFH)

    Taf: TAF EDFH 232300Z 2400/2424 30010KT 9999 SCT008 BECMG 2401/2405 22005KT BKN008 TEMPO 2404/2411 2500 RA BR BKN004 BECMG 2409/2413 23015G25KT TEMPO 2411/2413 BKN004 TEMPO 2421/2424 24020G35KT RA=

    Metar: nil

  • Ramstein (ETAR)

    Taf: TAF ETAR 231800Z 2318/2424 24020G35KT 9999 BKN015 OVC020 610809 530009 QNH3004INS BECMG 2319/2320 26010G20KT 9000 -SHRA BKN015 OVC020 610805 520004 QNH3014INS BECMG 2322/2323 29009KT 9999 -RA BKN045 620805 QNH3023INS BECMG 2404/2405 19009KT 8000 -RA BKN008 BKN010 620409 QNH3010INS BECMG 2408/2409 23010G20KT 9999 NSW BKN010 OVC020 510006 QNH2991INS BECMG 2414/2415 23015G25KT 9999 BKN020 520006 QNH2978INS TX10/2414Z TN04/2404Z=

    Metar: nil

  • Nancy/Ochey (LFSO)

    Taf: TAF LFSO 232000Z NIL=

    Metar: nil

  • Liège Bierset (EBLG)

    Taf: TAF EBLG 232320Z 2400/2506 23004KT CAVOK TEMPO 2405/2409 4800 -RA BECMG 2407/2409 4000 -RADZ SCT008 BKN012 TEMPO 2409/2503 BKN008 PROB40 TEMPO 2409/2414 BKN004 BECMG 2410/2412 23018G30KT BECMG 2502/2504 25012KT 9999 NSW SCT015=

    Metar: nil

  • Saint-Dizier (LFSI)

    Taf: TAF LFSI 232000Z 2321/2421 24015KT 9999 OVC015 TEMPO 2321/2409 23015G25KT 2000 DZRA OVC005=

    Metar: nil

  • Maastricht/Zuid Limburg (EHBK)

    Taf: TAF EHBK 232311Z 2400/2506 27005KT 9999 BKN030 BECMG 2408/2411 21015G28KT TEMPO 2411/2416 6000 -RADZ BKN012 PROB30 TEMPO 2411/2416 23022G35KT 4000 RADZ BKN006 BECMG 2416/2418 24018G32KT 6000 RA BECMG 2419/2421 9999 NSW PROB40 TEMPO 2421/2503 6000 SHRA -RADZ BKN008 SCT016TCU BECMG 2500/2503 27015KT=

    Metar: nil

  • Köln/Köln-Bonn (EDDK)

    Taf: TAF EDDK 232300Z 2400/2506 28009KT 9999 BKN035 BECMG 2402/2405 14006KT BECMG 2412/2414 18012KT BECMG 2414/2416 23015G25KT PROB30 TEMPO 2418/2506 25020G30KT=

    Metar: METAR EDDK 240120Z 26004KT CAVOK 04/M00 Q1024 NOSIG=

  • Charleroi (EBCI)

    Taf: TAF EBCI 232320Z 2400/2506 23004KT CAVOK TEMPO 2402/2406 4800 -RA BECMG 2406/2408 4000 -RADZ SCT008 BKN012 TEMPO 2407/2424 BKN008 PROB40 TEMPO 2407/2414 BKN004 BECMG 2410/2412 23018G30KT BECMG 2423/2501 25012KT 9999 NSW SCT015=

    Metar: nil

  • Karlsruhe/Baden-Baden (EDSB)

    Taf: TAF AMD EDSB 232309Z 2323/2418 CNL=

    Metar: nil

  • Chalons/Vatry (LFOK)

    Taf: TAF LFOK 232300Z 2400/2424 22005KT 6000 OVC006 TEMPO 2400/2412 2000 DZRA BR OVC002 BECMG 2406/2408 22015G25KT FM241200 22020G30KT 9999 OVC006 BECMG 2412/2414 OVC015 BECMG 2421/2424 OVC005 PROB40 2421/2424 2000 DZ BR OVC002=

    Metar: nil

  • Frankfurt/Main (EDDF)

    Taf: TAF EDDF 232300Z 2400/2506 30007KT 9999 SCT035 BECMG 2408/2410 20006KT BKN025 TEMPO 2409/2413 4500 RA BKN014 TEMPO 2413/2417 BKN008 BECMG 2414/2417 20012KT BECMG 2418/2421 22015G25KT TEMPO 2422/2506 23020G30KT RA BKN014=

    Metar: METAR EDDF 240120Z 31007KT 9999 FEW025 07/01 Q1024 NOSIG=

  • Brüssel (EBBR)

    Taf: TAF EBBR 232320Z 2400/2506 23004KT CAVOK TEMPO 2404/2408 4800 -RA BECMG 2407/2409 17010KT 4000 -RADZ SCT008 BKN012 TEMPO 2408/2424 BKN008 PROB40 TEMPO 2408/2412 BKN004 BECMG 2410/2412 23018G30KT BECMG 2423/2501 25012KT 9999 NSW SCT015=

    Metar: METAR EBBR 240120Z 19004KT CAVOK 05/02 Q1025 NOSIG=

  • Düsseldorf (EDDL)

    Taf: TAF EDDL 232300Z 2400/2506 27007KT 9999 BKN030 BECMG 2402/2404 21006KT BECMG 2405/2408 15011KT BECMG 2411/2414 22015G30KT PROB40 TEMPO 2417/2424 24020G35KT PROB30 TEMPO 2417/2421 RA BKN012=

    Metar: nil

  • Luxeuil (LFSX)

    Taf: TAF LFSX 232000Z NIL=

    Metar: nil

  • Eindhoven (EHEH)

    Taf: TAF EHEH 232300Z NIL=

    Metar: nil

  • Niederrhein (EDLV)

    Taf: TAF EDLV 232300Z NIL=

    Metar: nil

  • Dortmund/Wickede (EDLW)

    Taf: TAF EDLW 232300Z NIL=

    Metar: nil

  • Stuttgart/Echterdingen (EDDS)

    Taf: TAF EDDS 232300Z 2400/2424 28013KT 9999 BKN030 TEMPO 2400/2411 RA BKN014 BECMG 2400/2403 28006KT BECMG 2404/2407 VRB03KT BECMG 2410/2413 22008KT=

    Metar: METAR EDDS 240120Z 33011KT 9999 -RA SCT006 BKN025 OVC037 05/04 Q1024=

  • Basel-Mühlhausen (LFSB)

    Taf: TAF LFSB 232300Z 2400/2424 25012KT 9999 BKN045 TEMPO 2400/2402 25015G25KT PROB30 TEMPO 2400/2406 -RADZ BKN018 TEMPO 2413/2418 27015G25KT CAVOK=

    Metar: METAR LFSB 240100Z AUTO 26010KT 220V280 9999 OVC028 13/08 Q1027 TEMPO 25015G25KT=

  • Lille (LFQQ)

    Taf: TAF LFQQ 232300Z 2400/2506 VRB02KT 9999 BKN040 BECMG 2403/2406 15010KT 4000 RA BR OVC013 TEMPO 2406/2412 2000 OVC003 BECMG 2408/2410 21013KT FM241200 24020G35KT 9999 BKN018 TEMPO 2414/2423 2000 RA OVC010 BECMG 2501/2504 26015G25KT=

    Metar: nil

  • Paris/Charles de Gaulle (LFPG)

    Taf: TAF LFPG 232300Z 2400/2506 23010KT 9999 BKN008 TX14/2414Z TN08/2506Z TEMPO 2400/2409 3000 RADZ BKN004 PROB40 TEMPO 2406/2409 BKN002 BECMG 2410/2412 22015G25KT BKN016 TEMPO 2414/2419 23020G35KT BECMG 2419/2421 4000 -RA BKN012=

    Metar: nil

  • Paderborn/Lippstadt (EDLP)

    Taf: TAF EDLP 232300Z 2400/2424 26009KT CAVOK BECMG 2404/2407 20008KT BECMG 2409/2412 18013KT BECMG 2413/2417 23015G30KT TEMPO 2416/2419 4500 RA BKN010 PROB40 TEMPO 2418/2424 25020G35KT=

    Metar: nil

  • Paris/Le Bourget (LFPB)

    Taf: TAF LFPB 232300Z 2400/2424 23010KT 9999 BKN008 TEMPO 2400/2409 3000 RADZ BKN004 PROB40 TEMPO 2406/2409 BKN002 BECMG 2410/2412 22015G25KT BKN016 TEMPO 2414/2419 23020G35KT BECMG 2419/2421 4000 -RA BKN012=

    Metar: METAR LFPB 240100Z AUTO 06002KT 3400 -DZ BR OVC006 10/10 Q1026 TEMPO RADZ BKN004 BECMG 23010KT=

  • Rotterdam (EHRD)

    Taf: TAF EHRD 232320Z 2400/2506 28011KT 9999 SCT020 BECMG 2401/2403 23006KT BECMG 2407/2410 16015KT -RA BKN017 BECMG 2410/2413 23026G39KT BKN014 TEMPO 2410/2419 6000 RADZ BKN009 PROB40 TEMPO 2410/2419 3500 DZRA TEMPO 2419/2422 4000 RA -SHRA BKN009 SCT015TCU BECMG 2420/2423 26020G30KT NSW SCT030=

    Metar: nil

  • Zürich/Kloten (LSZH)

    Taf: TAF LSZH 232325Z 2400/2506 24008KT 9999 FEW035 BKN040 TX18/2414Z TN08/2423Z TN05/2505Z PROB40 TEMPO 2403/2407 -RA BKN013 BECMG 2413/2416 CAVOK=

    Metar: METAR LSZH 240120Z 28005KT 240V310 9999 BKN035 13/05 Q1026 NOSIG=

  • Oostende/Intl (EBOS)

    Taf: TAF EBOS 232320Z 2400/2506 31010KT CAVOK TEMPO 2403/2407 4800 -RA BECMG 2406/2408 16013KT 4000 -RADZ SCT008 BKN012 TEMPO 2407/2420 BKN008 PROB40 TEMPO 2407/2410 BKN004 BECMG 2408/2410 23022G37KT BECMG 2420/2422 25018KT 9999 NSW SCT015=

    Metar: nil

  • Paris/Orly (LFPO)

    Taf: TAF LFPO 232300Z 2400/2506 23010KT 6000 BKN006 TEMPO 2400/2409 2000 DZ BKN003 BECMG 2410/2412 23015G25KT BKN015 TEMPO 2412/2421 23025G35KT BKN012 TEMPO 2421/2506 3000 RADZ BKN008=

    Metar: nil

  • Beauvais (LFOB)

    Taf: TAF LFOB 232300Z 2400/2424 VRB03KT 9999 BKN040 BECMG 2400/2404 OVC006 TEMPO 2403/2413 2000 DZRA BR OVC003 BECMG 2404/2406 22010KT BECMG 2408/2410 22015G25KT BECMG 2413/2415 OVC015 PROB30 TEMPO 2415/2417 22025G35KT TEMPO 2418/2423 3000 RA OVC006 FM242300 25015G25KT 9999 BKN020=

    Metar: nil

  • Münster/Intl (EDDG)

    Taf: TAF EDDG 232300Z 2400/2424 25009KT 9999 FEW040 BECMG 2404/2407 17007KT TEMPO 2410/2424 BKN012 PROB40 TEMPO 2411/2418 BKN008 BECMG 2413/2416 22015G30KT TEMPO 2415/2418 4500 RA TEMPO 2418/2424 23020G35KT=

    Metar: METAR EDDG 240120Z 26010KT 9999 BKN035 05/01 Q1022 NOSIG=

  • Duebendorf (LSMD)

    Taf: TAF LSMD 231625Z 2317/2423 27010KT 9999 FEW055 PROB40 TEMPO 2317/2321 28015G25KT BECMG 2415/2418 VRB03KT CAVOK=

    Metar: nil

  • Villacoublay (LFPV)

    Taf: TAF LFPV 232000Z 2321/2421 24014KT 9999 BKN005 TEMPO 2321/2412 3000 RADZ BKN002 BECMG 2410/2412 24015G25KT BECMG 2412/2414 BKN018=

    Metar: nil

  • Payerne (LSMP)

    Taf: TAF LSMP 231625Z 2317/2423 23008G18KT CAVOK=

    Metar: nil

  • Amsterdam/Schipol (EHAM)

    Taf: TAF EHAM 232317Z 2400/2506 28012KT 9999 SCT020 BECMG 2401/2403 23006KT BECMG 2408/2411 16015KT -RA BKN017 BECMG 2411/2414 23026G39KT BKN014 TEMPO 2411/2419 6000 RADZ BKN009 PROB40 TEMPO 2411/2419 3500 DZRA TEMPO 2419/2422 4000 RA -SHRA BKN009 SCT015TCU BECMG 2420/2423 26020G30KT NSW SCT030=

    Metar: METAR EHAM 240125Z 27007KT 9999 FEW024 04/02 Q1022 NOSIG=

  • Emmen (LSME)

    Taf: TAF LSME 231625Z 2317/2423 24010KT 9999 FEW090 BECMG 2402/2405 VRB03KT BECMG 2415/2418 CAVOK=

    Metar: nil

  • Friedrichshafen (EDNY)

    Taf: TAF EDNY 232300Z 2400/2424 26015G25KT 9999 BKN050 TEMPO 2400/2403 24020G35KT TEMPO 2400/2408 BKN011 PROB30 TEMPO 2400/2403 RA BKN009 BECMG 2401/2403 24010KT=

    Metar: nil

  • Alpnach (LSMA)

    Taf: TAF LSMA 231625Z 2317/2423 VRB03KT CAVOK BECMG 2320/2323 9999 BKN040 BECMG 2413/2416 CAVOK=

    Metar: nil

  • Meiringen (LSMM)

    Taf: TAF LSMM 231625Z 2317/2423 VRB03KT 9999 BKN075 BECMG 2413/2416 CAVOK=

    Metar: nil

  • Nürnberg (EDDN)

    Taf: TAF EDDN 232300Z 2400/2424 29015KT 9999 BKN025 BECMG 2402/2404 27007KT BECMG 2408/2410 21005KT BECMG 2410/2412 15007KT BECMG 2412/2414 OVC012 PROB30 TEMPO 2412/2420 4000 DZRA OVC007 BECMG 2420/2422 21010KT BKN030=

    Metar: METAR EDDN 240120Z 29009KT CAVOK 06/02 Q1022=

  • Rouen (LFOP)

    Taf: TAF LFOP 232300Z NIL=

    Metar: nil

  • Erfurt/Bindersleben (EDDE)

    Taf: TAF EDDE 232300Z 2400/2424 29020G35KT 9999 FEW045 BECMG 2400/2402 28015G25KT BECMG 2411/2413 22015G25KT TEMPO 2418/2421 24020G30KT=

    Metar: nil